KMUO

Mountain Home AFB Airport

Mountain Home, Idaho, USA
METAR KMUO 201456Z AUTO 31006KT 10SM CLR M13/M17 A3014 RMK AO2 SLP251 T11311166 52019 $
Observed Flight Rules
Feb-20 @ 14:56 UTC (3 hours ago) Visual Flight Rules
Wind Visibility Clouds
310° at 6 knots 10 miles
  • Clear skies
Temperatures Readings
Current -13°C / 9°F
Dewpoint -17°C / 1°F
Humidity 72%
Altimeter 30.14" Hg
Pressure 1025.1 hPa
Elevation 913
METAR KMUO 201456Z AUTO 31006KT 10SM CLR M13/M17 A3014 RMK AO2 SLP251 T11311166 52019 $
Observed Flight Rules
Feb-20 @ 14:56 UTC
(3 hours ago)
VFR
Wind Visibility
310° at 6 knots 10 miles
Clouds
  • Clear skies
Temperature Dewpoint
-13°C / 9°F -17°C / 1°F
Humidity Altimeter Pressure
72% 30.14" Hg 1025.1 hPa